Time;durP1;ratioP1;P1;durP2;ratioP2;P2;SDS_P1;SDS_P2;PMS_P1;PMS_P2;Temp;Humidity;BMP_temperature;BMP_pressure;BME280_temperature;BME280_humidity;BME280_pressure;Samples;Min_cycle;Max_cycle;Signal;HPM_P1;HPM_P2
2022/10/24 00:01:29;;;;;;;9.55;1.40;;;18.70;99.90;;;;;;4980756;28;20223;-74
2022/10/24 00:04:00;;;;;;;5.55;1.27;;;18.70;99.90;;;;;;4980833;28;20660;-74
2022/10/24 00:06:31;;;;;;;1.40;0.75;;;18.70;99.90;;;;;;4974315;28;20537;-74
2022/10/24 00:09:02;;;;;;;1.63;0.70;;;18.70;99.90;;;;;;4976420;28;20200;-74
2022/10/24 00:11:33;;;;;;;2.42;0.82;;;18.70;99.90;;;;;;4970472;28;20203;-72
2022/10/24 00:14:06;;;;;;;4.78;1.15;;;18.70;99.90;;;;;;4974301;28;20672;-74
2022/10/24 00:16:37;;;;;;;5.60;0.90;;;18.70;99.90;;;;;;4981355;28;20202;-75
2022/10/24 00:19:08;;;;;;;7.43;1.00;;;18.70;99.90;;;;;;4974108;28;20214;-75
2022/10/24 00:21:39;;;;;;;3.63;0.80;;;18.70;99.90;;;;;;4978632;28;20219;-74
2022/10/24 00:24:11;;;;;;;5.20;1.00;;;18.60;99.90;;;;;;4971391;28;20200;-76
2022/10/24 00:26:41;;;;;;;7.55;1.08;;;18.60;99.90;;;;;;4970638;28;20208;-76
2022/10/24 00:29:14;;;;;;;3.75;1.08;;;18.60;99.90;;;;;;4976496;28;20668;-76
2022/10/24 00:31:45;;;;;;;5.75;1.55;;;18.70;99.90;;;;;;4974984;28;20200;-76
2022/10/24 00:34:16;;;;;;;6.88;1.67;;;18.70;99.90;;;;;;4987335;28;20204;-76
2022/10/24 00:36:47;;;;;;;9.60;1.75;;;18.70;99.90;;;;;;4967036;28;20211;-76
2022/10/24 00:39:17;;;;;;;10.95;1.85;;;18.70;99.90;;;;;;4965608;28;20621;-76
2022/10/24 00:41:48;;;;;;;8.55;1.33;;;18.70;99.90;;;;;;4981805;28;20225;-75
2022/10/24 00:44:27;;;;;;;5.20;1.05;;;18.70;99.90;;;;;;4963500;28;20541;-76
2022/10/24 00:47:00;;;;;;;7.45;1.27;;;18.80;99.90;;;;;;4964278;28;20205;-76
2022/10/24 00:49:37;;;;;;;5.10;1.35;;;18.70;99.90;;;;;;4957172;28;20323;-76
2022/10/24 00:52:10;;;;;;;5.22;1.40;;;18.80;99.90;;;;;;4968793;28;20196;-76
2022/10/24 00:54:43;;;;;;;3.55;1.10;;;18.80;99.90;;;;;;4977941;28;20196;-76
2022/10/24 00:57:17;;;;;;;8.93;1.33;;;18.90;99.90;;;;;;4965420;28;20228;-76
2022/10/24 00:59:53;;;;;;;11.48;2.03;;;18.80;99.90;;;;;;4970785;28;20200;-76
2022/10/24 01:02:24;;;;;;;12.68;2.20;;;18.80;99.90;;;;;;4955412;28;20216;-76
2022/10/24 01:04:55;;;;;;;13.23;2.50;;;18.80;99.90;;;;;;4969077;28;20204;-77
2022/10/24 01:07:38;;;;;;;16.05;2.83;;;18.80;99.90;;;;;;4964383;28;20347;-76
2022/10/24 01:10:39;;;;;;;10.20;1.92;;;18.90;99.90;;;;;;4962969;28;21718;-77
2022/10/24 01:13:21;;;;;;;9.25;1.45;;;18.90;99.90;;;;;;4962119;28;20196;-77
2022/10/24 01:16:00;;;;;;;8.85;1.77;;;18.90;99.90;;;;;;4963991;28;20210;-76
2022/10/24 01:18:33;;;;;;;9.57;1.65;;;18.80;99.90;;;;;;4967877;28;20196;-76
2022/10/24 01:21:23;;;;;;;7.85;1.73;;;18.80;99.90;;;;;;4970963;28;20213;-76
2022/10/24 01:24:12;;;;;;;8.10;1.42;;;18.80;99.90;;;;;;4967891;28;20208;-75
2022/10/24 01:27:13;;;;;;;14.75;3.80;;;18.70;99.90;;;;;;4963292;28;20222;-75
2022/10/24 01:29:52;;;;;;;14.93;2.47;;;18.70;99.90;;;;;;4955925;28;20201;-78
2022/10/24 01:32:33;;;;;;;15.20;2.55;;;18.70;99.90;;;;;;4956415;28;20568;-77
2022/10/24 01:35:12;;;;;;;13.23;2.20;;;18.70;99.90;;;;;;4965215;28;20197;-79
2022/10/24 01:37:46;;;;;;;11.80;2.10;;;18.80;99.90;;;;;;4973711;28;20710;-77
2022/10/24 01:40:26;;;;;;;16.92;2.45;;;18.90;99.90;;;;;;4968187;28;20617;-77
2022/10/24 01:43:03;;;;;;;13.07;2.08;;;18.90;99.90;;;;;;4973286;28;20195;-76
2022/10/24 01:45:38;;;;;;;13.75;1.92;;;19.00;99.90;;;;;;4974102;28;20199;-77
2022/10/24 01:48:11;;;;;;;14.98;2.08;;;19.00;99.90;;;;;;4977512;28;20676;-78
2022/10/24 01:50:43;;;;;;;16.10;1.80;;;19.10;99.90;;;;;;4967431;28;20203;-76
2022/10/24 01:53:16;;;;;;;11.05;1.60;;;19.10;99.90;;;;;;4993206;28;20564;-77
2022/10/24 01:55:48;;;;;;;15.52;1.60;;;19.10;99.90;;;;;;4983253;28;20312;-77
2022/10/24 01:58:19;;;;;;;11.35;1.65;;;19.10;99.90;;;;;;4980922;28;20235;-78
2022/10/24 02:00:55;;;;;;;13.32;1.70;;;19.10;99.90;;;;;;4975995;28;20216;-79
2022/10/24 02:03:31;;;;;;;9.93;1.55;;;19.10;99.90;;;;;;4968154;28;20198;-77
2022/10/24 02:06:08;;;;;;;13.10;1.98;;;19.10;99.90;;;;;;4973154;28;20199;-77
2022/10/24 02:08:44;;;;;;;14.27;1.92;;;19.10;99.90;;;;;;4974431;28;20581;-78
2022/10/24 02:11:15;;;;;;;12.23;1.90;;;19.20;99.90;;;;;;4974681;28;20279;-76
2022/10/24 02:13:52;;;;;;;11.82;1.33;;;19.20;99.90;;;;;;4966471;28;20197;-77
2022/10/24 02:16:24;;;;;;;11.45;1.73;;;19.20;99.90;;;;;;4975093;28;20202;-77
2022/10/24 02:18:57;;;;;;;9.25;1.55;;;19.20;99.90;;;;;;4957609;28;20200;-77
2022/10/24 02:21:35;;;;;;;12.07;1.90;;;19.30;99.90;;;;;;4972269;28;20216;-76
2022/10/24 02:24:14;;;;;;;9.43;1.60;;;19.30;99.90;;;;;;4970658;28;20273;-77
2022/10/24 02:26:51;;;;;;;13.57;1.88;;;19.40;99.90;;;;;;4969260;28;20200;-77
2022/10/24 02:29:26;;;;;;;8.65;1.80;;;19.50;99.90;;;;;;4968813;28;20192;-76
2022/10/24 02:32:00;;;;;;;5.45;1.50;;;19.50;99.90;;;;;;4961644;28;20221;-76
2022/10/24 02:34:34;;;;;;;9.20;1.48;;;19.60;99.90;;;;;;4966641;28;20218;-77
2022/10/24 02:37:07;;;;;;;3.72;1.30;;;19.60;99.90;;;;;;4972073;28;20247;-76
2022/10/24 02:39:39;;;;;;;12.55;1.70;;;19.70;99.90;;;;;;4978199;28;20196;-77
2022/10/24 02:42:13;;;;;;;6.95;1.50;;;19.70;99.90;;;;;;4961409;28;20697;-77
2022/10/24 02:44:47;;;;;;;7.20;1.50;;;19.70;99.90;;;;;;4971002;28;20208;-76
2022/10/24 02:47:22;;;;;;;7.30;1.30;;;19.80;99.90;;;;;;4966090;28;20201;-77
2022/10/24 02:49:53;;;;;;;7.63;1.50;;;19.80;99.90;;;;;;4971089;28;20215;-74
2022/10/24 02:52:25;;;;;;;8.82;1.65;;;19.90;99.90;;;;;;4970663;28;20196;-76
2022/10/24 02:54:55;;;;;;;8.10;1.70;;;20.00;99.90;;;;;;4967099;28;20763;-76
2022/10/24 02:57:27;;;;;;;10.20;1.83;;;20.00;99.90;;;;;;4971190;28;20311;-76
2022/10/24 02:59:58;;;;;;;6.10;1.58;;;20.10;99.90;;;;;;4962551;28;20675;-75
2022/10/24 03:02:30;;;;;;;8.90;1.65;;;20.00;99.90;;;;;;4970622;28;20223;-77
2022/10/24 03:05:01;;;;;;;11.82;1.80;;;20.00;99.90;;;;;;4981388;28;20199;-75
2022/10/24 03:07:32;;;;;;;10.10;2.05;;;20.00;99.90;;;;;;4976487;28;20200;-75
2022/10/24 03:10:03;;;;;;;8.52;1.60;;;20.00;99.90;;;;;;4971342;28;20215;-77
2022/10/24 03:12:34;;;;;;;8.25;1.80;;;20.00;99.90;;;;;;4968170;28;20208;-75
2022/10/24 03:15:04;;;;;;;10.23;1.80;;;20.00;99.90;;;;;;4975973;28;20224;-74
2022/10/24 03:17:37;;;;;;;8.80;1.67;;;20.00;99.90;;;;;;4959314;28;20210;-76
2022/10/24 03:20:09;;;;;;;7.60;2.08;;;20.00;99.90;;;;;;4966760;28;20211;-76
2022/10/24 03:22:40;;;;;;;8.30;1.85;;;20.00;99.90;;;;;;4974124;28;20538;-77
2022/10/24 03:25:11;;;;;;;8.98;2.08;;;20.00;99.90;;;;;;4964414;28;20197;-76
2022/10/24 03:27:41;;;;;;;8.23;1.90;;;20.00;99.90;;;;;;4985219;28;20221;-77
2022/10/24 03:30:13;;;;;;;13.48;2.13;;;20.10;99.90;;;;;;4985198;28;20276;-73
2022/10/24 03:32:46;;;;;;;11.73;2.30;;;20.10;99.90;;;;;;4979731;28;20227;-78
2022/10/24 03:35:17;;;;;;;10.63;2.03;;;20.10;99.90;;;;;;4985885;28;20200;-77
2022/10/24 03:37:48;;;;;;;10.18;2.50;;;20.10;99.90;;;;;;4976652;28;20238;-76
2022/10/24 03:40:18;;;;;;;11.50;2.70;;;20.20;99.90;;;;;;4977770;28;20199;-76
2022/10/24 03:42:49;;;;;;;8.05;3.20;;;20.20;99.90;;;;;;4974966;28;20206;-77
2022/10/24 03:45:20;;;;;;;16.00;3.63;;;20.10;99.90;;;;;;4969037;28;20196;-77
2022/10/24 03:47:53;;;;;;;6.28;1.95;;;20.10;99.90;;;;;;4986187;28;20200;-74
2022/10/24 03:50:24;;;;;;;2.00;0.77;;;20.00;99.90;;;;;;4977979;28;20212;-76
2022/10/24 03:52:54;;;;;;;2.30;0.40;;;19.90;99.90;;;;;;4960187;28;20258;-76
2022/10/24 03:55:25;;;;;;;1.80;0.57;;;19.70;99.90;;;;;;4958881;28;20228;-77
2022/10/24 03:57:56;;;;;;;1.25;0.60;;;19.60;99.90;;;;;;4989840;28;20556;-77
2022/10/24 04:00:27;;;;;;;1.80;0.70;;;19.60;99.90;;;;;;4955670;28;20200;-78
2022/10/24 04:03:00;;;;;;;2.42;0.90;;;19.70;99.90;;;;;;4974391;28;20250;-77
2022/10/24 04:05:31;;;;;;;1.65;0.70;;;19.70;99.90;;;;;;4990425;28;20221;-77
2022/10/24 04:08:02;;;;;;;1.30;0.90;;;19.70;99.90;;;;;;4987951;28;20544;-76
2022/10/24 04:10:33;;;;;;;2.22;1.00;;;19.80;99.90;;;;;;4987448;28;20192;-76
2022/10/24 04:13:04;;;;;;;3.90;1.60;;;19.80;99.90;;;;;;4961077;28;20601;-77
2022/10/24 04:15:35;;;;;;;4.72;1.80;;;19.90;99.90;;;;;;4986285;28;20200;-76
2022/10/24 04:18:08;;;;;;;4.05;1.90;;;19.90;99.90;;;;;;4964107;28;20207;-77
2022/10/24 04:20:39;;;;;;;4.88;1.80;;;19.90;99.90;;;;;;4965811;28;20208;-76
2022/10/24 04:23:10;;;;;;;4.95;1.70;;;20.00;99.90;;;;;;4960926;28;20672;-75
2022/10/24 04:25:41;;;;;;;5.30;1.73;;;20.00;99.90;;;;;;4955474;28;20207;-75
2022/10/24 04:28:12;;;;;;;6.10;2.20;;;20.00;99.90;;;;;;4962850;28;20223;-74
2022/10/24 04:30:43;;;;;;;5.90;2.10;;;20.00;99.90;;;;;;4969750;28;20204;-77
2022/10/24 04:33:17;;;;;;;8.32;2.03;;;20.00;99.90;;;;;;4968696;28;20223;-78
2022/10/24 04:35:51;;;;;;;8.60;2.60;;;20.00;99.90;;;;;;4967660;28;20204;-76
2022/10/24 04:38:23;;;;;;;9.43;2.80;;;20.00;99.90;;;;;;4969796;28;20236;-76
2022/10/24 04:40:56;;;;;;;9.68;3.03;;;20.00;99.90;;;;;;4959598;28;20205;-76
2022/10/24 04:43:27;;;;;;;11.65;3.60;;;19.90;99.90;;;;;;4967690;28;20219;-77
2022/10/24 04:45:58;;;;;;;7.43;3.00;;;19.90;99.90;;;;;;4965381;28;20203;-76
2022/10/24 04:48:31;;;;;;;13.95;3.28;;;19.90;99.90;;;;;;4973007;28;20570;-77
2022/10/24 04:51:01;;;;;;;8.77;2.97;;;19.90;99.90;;;;;;4959074;28;20661;-75
2022/10/24 04:53:32;;;;;;;9.57;2.50;;;20.00;99.90;;;;;;4967615;28;20315;-75
2022/10/24 04:56:03;;;;;;;10.32;2.30;;;20.00;99.90;;;;;;4971066;28;20223;-76
2022/10/24 04:58:34;;;;;;;9.07;2.85;;;20.10;99.90;;;;;;4964249;28;20227;-77
2022/10/24 05:01:05;;;;;;;5.70;2.80;;;20.10;99.90;;;;;;4955049;28;20681;-77
2022/10/24 05:03:37;;;;;;;9.68;2.90;;;20.20;99.90;;;;;;4960189;28;20196;-77
2022/10/24 05:06:08;;;;;;;9.52;2.80;;;20.20;99.90;;;;;;4973405;28;20204;-76
2022/10/24 05:08:39;;;;;;;7.45;2.20;;;20.20;99.90;;;;;;4970074;28;20653;-76
2022/10/24 05:11:10;;;;;;;7.90;1.98;;;20.20;99.90;;;;;;4975074;28;20214;-76
2022/10/24 05:13:41;;;;;;;5.90;1.90;;;20.20;99.90;;;;;;4962172;28;20224;-77
2022/10/24 05:16:12;;;;;;;7.45;1.92;;;20.20;99.90;;;;;;4966749;28;20204;-76
2022/10/24 05:18:44;;;;;;;7.57;1.98;;;20.20;99.90;;;;;;4960359;28;20207;-76
2022/10/24 05:21:15;;;;;;;7.47;1.90;;;20.30;99.90;;;;;;4964124;28;20222;-76
2022/10/24 05:23:46;;;;;;;8.48;2.10;;;20.40;99.90;;;;;;4983115;28;20722;-77
2022/10/24 05:26:17;;;;;;;9.07;2.40;;;20.50;99.90;;;;;;4972469;28;20192;-76
2022/10/24 05:28:48;;;;;;;6.53;2.55;;;20.60;99.90;;;;;;4968008;28;20217;-77
2022/10/24 05:31:19;;;;;;;6.93;2.35;;;20.70;99.90;;;;;;4965993;28;20656;-76
2022/10/24 05:33:51;;;;;;;6.20;2.30;;;20.60;99.90;;;;;;4971030;28;20227;-75
2022/10/24 05:36:22;;;;;;;5.50;2.22;;;20.70;99.90;;;;;;4970313;28;20204;-75
2022/10/24 05:38:53;;;;;;;4.90;1.85;;;20.70;99.90;;;;;;4970016;28;20319;-76
2022/10/24 05:41:24;;;;;;;5.68;2.05;;;20.60;99.90;;;;;;4969555;28;20283;-75
2022/10/24 05:43:54;;;;;;;9.55;2.10;;;20.60;99.90;;;;;;4962641;28;20205;-77
2022/10/24 05:46:25;;;;;;;5.85;1.98;;;20.60;99.90;;;;;;4954697;28;20223;-76
2022/10/24 05:48:58;;;;;;;5.05;2.03;;;20.60;99.90;;;;;;4971965;28;20200;-78
2022/10/24 05:51:29;;;;;;;4.22;1.83;;;20.60;99.90;;;;;;4973842;28;20204;-78
2022/10/24 05:53:59;;;;;;;4.70;1.80;;;20.60;99.90;;;;;;4970955;28;20577;-78
2022/10/24 05:56:30;;;;;;;3.75;1.65;;;20.60;99.90;;;;;;4971612;28;20225;-75
2022/10/24 05:59:02;;;;;;;3.75;1.80;;;20.70;99.90;;;;;;4972750;28;20219;-75
2022/10/24 06:01:33;;;;;;;4.32;1.80;;;20.60;99.90;;;;;;4978341;28;20192;-75
2022/10/24 06:04:11;;;;;;;2.58;1.20;;;20.60;99.90;;;;;;4983570;28;20207;-75
2022/10/24 06:06:43;;;;;;;3.38;1.48;;;20.60;99.90;;;;;;4971052;28;20200;-76
2022/10/24 06:09:14;;;;;;;2.40;1.33;;;20.60;99.90;;;;;;4976105;28;20195;-77
2022/10/24 06:11:45;;;;;;;4.78;1.55;;;20.70;99.90;;;;;;4971627;28;20219;-77
2022/10/24 06:14:16;;;;;;;3.67;1.40;;;20.70;99.90;;;;;;4971319;28;20199;-74
2022/10/24 06:16:47;;;;;;;1.70;1.40;;;20.80;99.90;;;;;;4968876;28;20210;-76
2022/10/24 06:19:20;;;;;;;2.10;1.63;;;20.80;99.90;;;;;;4972786;28;20565;-73
2022/10/24 06:21:51;;;;;;;2.35;1.38;;;20.80;99.90;;;;;;4974252;28;20204;-77
2022/10/24 06:24:22;;;;;;;2.22;1.50;;;20.80;99.90;;;;;;4970808;28;20197;-76
2022/10/24 06:26:52;;;;;;;4.95;1.50;;;20.80;99.90;;;;;;4976115;28;20204;-75
2022/10/24 06:29:23;;;;;;;1.98;1.50;;;20.80;99.90;;;;;;4974922;28;20196;-76
2022/10/24 06:31:54;;;;;;;3.10;1.50;;;20.80;99.90;;;;;;4968128;28;20673;-77
2022/10/24 06:34:27;;;;;;;2.60;1.23;;;20.90;99.90;;;;;;4972745;28;20204;-77
2022/10/24 06:36:59;;;;;;;3.22;1.15;;;20.80;99.90;;;;;;4975481;28;20185;-76
2022/10/24 06:39:30;;;;;;;3.78;1.00;;;20.70;99.90;;;;;;4974474;28;20230;-75
2022/10/24 06:42:02;;;;;;;1.10;1.00;;;20.80;99.90;;;;;;4974819;28;20195;-77
2022/10/24 06:44:32;;;;;;;2.08;0.90;;;20.80;99.90;;;;;;4974607;28;20657;-74
2022/10/24 06:47:03;;;;;;;2.20;1.17;;;20.80;99.90;;;;;;4977568;28;20196;-76
2022/10/24 06:49:36;;;;;;;2.08;0.93;;;20.80;99.90;;;;;;4978578;28;20224;-77
2022/10/24 06:52:07;;;;;;;1.98;1.25;;;20.70;99.90;;;;;;4975367;28;20192;-75
2022/10/24 06:54:38;;;;;;;3.00;1.33;;;20.70;99.90;;;;;;4975693;28;20198;-76
2022/10/24 06:57:09;;;;;;;1.80;0.90;;;20.70;99.90;;;;;;4977107;28;20216;-77
2022/10/24 06:59:39;;;;;;;2.03;0.75;;;20.60;99.90;;;;;;4981820;28;20192;-76
2022/10/24 07:02:11;;;;;;;1.02;0.80;;;20.60;99.90;;;;;;4975875;28;20231;-77
2022/10/24 07:04:43;;;;;;;2.78;0.90;;;20.60;99.90;;;;;;4981829;28;20570;-77
2022/10/24 07:07:18;;;;;;;2.45;0.75;;;20.50;99.90;;;;;;4972792;28;20202;-76
2022/10/24 07:09:53;;;;;;;1.17;0.73;;;20.50;99.90;;;;;;4974930;28;20193;-77
2022/10/24 07:12:25;;;;;;;1.23;0.70;;;20.50;99.90;;;;;;4975029;28;20342;-77
2022/10/24 07:14:56;;;;;;;1.00;0.80;;;20.50;99.90;;;;;;4975659;28;20580;-76
2022/10/24 07:17:28;;;;;;;0.85;0.80;;;20.40;99.90;;;;;;4974369;28;20204;-77
2022/10/24 07:20:00;;;;;;;4.38;1.10;;;20.40;99.90;;;;;;4974509;28;20204;-77
2022/10/24 07:22:31;;;;;;;5.07;1.40;;;20.40;99.90;;;;;;4983045;28;20195;-75
2022/10/24 07:25:02;;;;;;;2.70;1.20;;;20.30;99.90;;;;;;4968723;28;20196;-73
2022/10/24 07:27:33;;;;;;;4.45;1.20;;;20.20;99.90;;;;;;4975731;28;20196;-76
2022/10/24 07:30:04;;;;;;;3.08;0.85;;;20.10;99.90;;;;;;4978872;28;20199;-76
2022/10/24 07:32:35;;;;;;;4.97;1.40;;;20.00;99.90;;;;;;4974143;28;20218;-73
2022/10/24 07:35:08;;;;;;;1.88;0.80;;;20.00;99.90;;;;;;4976802;28;20561;-74
2022/10/24 07:37:38;;;;;;;6.88;1.27;;;19.90;99.90;;;;;;4975475;28;20238;-77
2022/10/24 07:40:10;;;;;;;3.65;1.00;;;19.90;99.90;;;;;;4972455;28;20199;-77
2022/10/24 07:42:41;;;;;;;2.58;0.77;;;19.80;99.90;;;;;;4976343;28;20205;-78
2022/10/24 07:45:13;;;;;;;3.42;0.90;;;19.70;99.90;;;;;;4974656;28;20207;-79
2022/10/24 07:47:43;;;;;;;2.33;0.88;;;19.70;99.90;;;;;;4976359;28;20212;-76
2022/10/24 07:50:16;;;;;;;4.10;0.90;;;19.70;99.90;;;;;;4972204;28;20188;-76
2022/10/24 07:52:47;;;;;;;4.45;1.30;;;19.60;99.90;;;;;;4972066;28;20271;-77
2022/10/24 07:55:18;;;;;;;4.82;1.10;;;19.60;99.90;;;;;;4975908;28;20798;-75
2022/10/24 07:57:48;;;;;;;9.02;1.27;;;19.50;99.90;;;;;;4974892;28;20200;-77
2022/10/24 08:00:20;;;;;;;4.03;1.00;;;19.50;99.90;;;;;;4975910;28;20382;-77
2022/10/24 08:02:50;;;;;;;9.18;1.10;;;19.40;99.90;;;;;;4974442;28;20572;-77
2022/10/24 08:05:23;;;;;;;7.80;1.00;;;19.40;99.90;;;;;;4973980;28;20566;-76
2022/10/24 08:07:54;;;;;;;7.35;1.17;;;19.40;99.90;;;;;;4975043;28;20865;-78
2022/10/24 08:10:25;;;;;;;5.25;0.80;;;19.30;99.90;;;;;;4972818;28;20200;-76
2022/10/24 08:12:55;;;;;;;7.93;0.90;;;19.30;99.90;;;;;;4959362;28;20210;-78
2022/10/24 08:15:26;;;;;;;7.88;1.15;;;19.20;99.90;;;;;;4976555;28;20199;-77
2022/10/24 08:17:57;;;;;;;6.63;0.90;;;19.20;99.90;;;;;;4972593;28;20752;-75
2022/10/24 08:20:30;;;;;;;6.38;1.10;;;19.20;99.90;;;;;;4975982;28;20204;-75
2022/10/24 08:23:01;;;;;;;5.68;1.10;;;19.20;99.90;;;;;;4977364;28;20667;-76
2022/10/24 08:25:31;;;;;;;6.78;1.00;;;19.20;99.90;;;;;;4978165;28;20197;-76
2022/10/24 08:28:02;;;;;;;4.13;0.80;;;19.20;99.90;;;;;;4971046;28;20236;-73
2022/10/24 08:30:33;;;;;;;5.70;0.90;;;19.10;99.90;;;;;;4974675;28;20228;-77
2022/10/24 08:33:04;;;;;;;5.65;0.80;;;19.10;99.90;;;;;;4982869;28;20730;-76
2022/10/24 08:35:36;;;;;;;9.65;1.27;;;19.10;99.90;;;;;;4987183;28;20648;-74
2022/10/24 08:38:07;;;;;;;7.43;1.02;;;19.10;99.90;;;;;;4973103;28;20234;-76
2022/10/24 08:40:38;;;;;;;10.57;1.17;;;19.10;99.90;;;;;;4975511;28;20207;-77
2022/10/24 08:43:11;;;;;;;4.68;1.05;;;19.10;99.90;;;;;;4971820;28;20286;-77
2022/10/24 08:45:48;;;;;;;6.70;0.82;;;19.10;99.90;;;;;;4973276;28;20204;-79
2022/10/24 08:48:26;;;;;;;7.43;1.10;;;19.10;99.90;;;;;;4979470;28;20656;-73
2022/10/24 08:51:05;;;;;;;7.93;0.75;;;19.10;99.90;;;;;;4973730;28;20287;-73
2022/10/24 08:53:37;;;;;;;5.88;0.77;;;19.10;99.90;;;;;;4973459;28;20713;-76
2022/10/24 08:56:11;;;;;;;5.28;0.60;;;19.10;99.90;;;;;;4971921;28;20224;-72
2022/10/24 08:58:46;;;;;;;10.55;0.90;;;19.10;99.90;;;;;;4974177;28;20678;-78
2022/10/24 09:01:23;;;;;;;8.55;0.98;;;19.10;99.90;;;;;;4967908;28;20192;-74
2022/10/24 09:03:56;;;;;;;3.58;0.80;;;19.10;99.90;;;;;;4973547;28;21181;-77
2022/10/24 09:06:30;;;;;;;6.30;0.90;;;19.10;99.90;;;;;;4973508;28;20222;-73
2022/10/24 09:09:04;;;;;;;5.57;0.80;;;19.10;99.90;;;;;;4971324;28;20555;-75
2022/10/24 09:11:45;;;;;;;2.75;0.60;;;19.10;99.90;;;;;;4973957;28;20196;-76
2022/10/24 09:14:17;;;;;;;4.53;0.55;;;19.10;99.90;;;;;;4971086;28;20274;-76
2022/10/24 09:16:51;;;;;;;3.75;0.70;;;19.10;99.90;;;;;;4972102;28;20204;-78
2022/10/24 09:19:26;;;;;;;4.07;0.73;;;19.10;99.90;;;;;;4969777;28;20206;-76
2022/10/24 09:21:59;;;;;;;5.20;0.70;;;19.10;99.90;;;;;;4976117;28;20566;-75
2022/10/24 09:24:37;;;;;;;3.28;0.75;;;19.10;99.90;;;;;;4977265;28;20207;-76
2022/10/24 09:27:13;;;;;;;8.35;1.17;;;19.00;99.90;;;;;;4972488;28;20202;-71
2022/10/24 09:29:44;;;;;;;5.35;0.90;;;19.10;99.90;;;;;;4971457;28;20318;-73
2022/10/24 09:32:19;;;;;;;4.55;0.73;;;19.00;99.90;;;;;;4971346;28;20192;-77
2022/10/24 09:34:50;;;;;;;3.33;0.70;;;19.00;99.90;;;;;;4968889;28;20226;-76
2022/10/24 09:37:39;;;;;;;3.17;0.77;;;19.00;99.90;;;;;;4967800;28;20236;-73
2022/10/24 09:40:16;;;;;;;4.78;0.80;;;19.00;99.90;;;;;;4973607;28;20224;-77
2022/10/24 09:42:54;;;;;;;4.53;0.80;;;19.00;99.90;;;;;;4971662;28;20196;-78
2022/10/24 09:45:41;;;;;;;2.60;0.77;;;19.00;99.90;;;;;;4971952;28;20189;-75
2022/10/24 09:48:23;;;;;;;3.00;0.70;;;19.00;99.90;;;;;;4969697;28;20192;-75
2022/10/24 09:50:55;;;;;;;5.00;1.02;;;19.00;99.90;;;;;;4972488;28;20684;-76
2022/10/24 09:53:30;;;;;;;4.85;0.82;;;18.90;99.90;;;;;;4973130;28;20216;-76
2022/10/24 09:56:03;;;;;;;3.05;0.70;;;18.90;99.90;;;;;;4972692;28;20216;-74
2022/10/24 09:58:34;;;;;;;3.85;0.85;;;18.90;99.90;;;;;;4976604;28;20239;-75
2022/10/24 10:01:07;;;;;;;7.65;1.17;;;18.90;99.90;;;;;;4972504;28;20193;-76
2022/10/24 10:03:41;;;;;;;6.07;1.10;;;18.90;99.90;;;;;;4976867;28;20192;-77
2022/10/24 10:06:19;;;;;;;5.38;1.00;;;18.80;99.90;;;;;;4973400;28;20204;-73
2022/10/24 10:08:56;;;;;;;5.13;1.00;;;18.80;99.90;;;;;;4975693;28;20751;-75
2022/10/24 10:11:29;;;;;;;3.83;1.10;;;18.80;99.90;;;;;;4976847;28;20641;-76
2022/10/24 10:14:01;;;;;;;6.50;0.93;;;18.80;99.90;;;;;;4976837;28;20220;-78
2022/10/24 10:16:34;;;;;;;3.58;0.75;;;18.70;99.90;;;;;;4976707;28;20200;-77
2022/10/24 10:19:06;;;;;;;3.47;0.70;;;18.70;99.90;;;;;;4975933;28;20327;-78
2022/10/24 10:21:54;;;;;;;3.60;0.82;;;18.70;99.90;;;;;;4976630;28;20191;-77
2022/10/24 10:24:38;;;;;;;1.98;0.85;;;18.60;99.90;;;;;;4974915;28;20192;-78
2022/10/24 10:27:29;;;;;;;4.75;0.90;;;18.60;99.90;;;;;;4976315;28;20561;-77
2022/10/24 10:30:19;;;;;;;5.65;1.35;;;18.60;99.90;;;;;;4974186;28;20208;-77
2022/10/24 10:33:13;;;;;;;3.63;1.80;;;18.60;99.90;;;;;;4975643;28;20207;-77
2022/10/24 10:35:50;;;;;;;5.97;1.65;;;18.60;99.90;;;;;;4974296;28;20208;-78
2022/10/24 10:38:43;;;;;;;4.07;1.35;;;18.60;99.90;;;;;;4973743;28;20312;-74
2022/10/24 10:41:35;;;;;;;2.95;1.42;;;18.60;99.90;;;;;;4970884;28;20287;-78
2022/10/24 10:44:26;;;;;;;3.60;1.55;;;18.60;99.90;;;;;;4975766;28;20296;-78
2022/10/24 10:47:08;;;;;;;6.00;1.13;;;18.60;99.90;;;;;;4976044;28;20203;-77
2022/10/24 10:49:40;;;;;;;3.75;1.02;;;18.70;99.90;;;;;;4976038;28;20207;-77
2022/10/24 10:52:17;;;;;;;3.50;1.10;;;18.70;99.90;;;;;;4971138;28;20200;-78
2022/10/24 10:55:02;;;;;;;2.72;1.20;;;18.70;99.90;;;;;;4973019;28;20216;-77
2022/10/24 10:57:40;;;;;;;3.40;0.90;;;18.70;99.90;;;;;;4972569;28;20210;-77
2022/10/24 11:00:15;;;;;;;2.03;0.93;;;18.70;99.90;;;;;;4971854;28;20231;-77
2022/10/24 11:03:04;;;;;;;3.90;1.25;;;18.70;99.90;;;;;;4972849;28;20207;-75
2022/10/24 11:05:52;;;;;;;3.58;0.85;;;18.70;99.90;;;;;;4972056;28;20199;-77
2022/10/24 11:08:39;;;;;;;2.67;1.15;;;18.70;99.90;;;;;;4972100;28;20206;-77
2022/10/24 11:11:14;;;;;;;2.90;1.08;;;18.70;99.90;;;;;;4972425;28;20197;-77
2022/10/24 11:13:54;;;;;;;5.60;1.30;;;18.80;99.90;;;;;;4963379;28;20216;-77
2022/10/24 11:16:29;;;;;;;3.97;1.10;;;18.80;99.90;;;;;;4970894;28;20251;-72
2022/10/24 11:19:03;;;;;;;7.22;1.50;;;18.80;99.90;;;;;;4973973;28;20200;-74
2022/10/24 11:21:36;;;;;;;2.53;1.00;;;18.80;99.90;;;;;;4975266;28;20208;-75
2022/10/24 11:24:14;;;;;;;3.05;1.10;;;18.80;99.90;;;;;;4974997;28;20212;-74
2022/10/24 11:26:47;;;;;;;4.13;1.15;;;18.80;99.90;;;;;;4979752;28;20202;-76
2022/10/24 11:29:26;;;;;;;4.22;1.30;;;18.80;99.90;;;;;;4975264;28;20231;-75
2022/10/24 11:32:00;;;;;;;6.05;1.50;;;18.80;99.90;;;;;;4971641;28;20196;-76
2022/10/24 11:34:37;;;;;;;7.70;1.13;;;18.80;99.90;;;;;;4972617;28;20223;-74
2022/10/24 11:37:14;;;;;;;4.82;1.33;;;18.80;99.90;;;;;;4974215;28;20713;-74
2022/10/24 11:39:49;;;;;;;5.80;1.42;;;18.80;99.90;;;;;;4977018;28;20192;-71
2022/10/24 11:42:27;;;;;;;4.60;1.80;;;18.80;99.90;;;;;;4970111;28;20200;-77
2022/10/24 11:45:06;;;;;;;5.07;1.38;;;18.80;99.90;;;;;;4973765;28;20208;-78
2022/10/24 11:47:59;;;;;;;5.53;1.40;;;18.80;99.90;;;;;;4974025;28;20207;-77
2022/10/24 11:50:35;;;;;;;5.18;1.33;;;18.80;99.90;;;;;;4970757;28;20211;-77
2022/10/24 11:53:16;;;;;;;4.10;1.30;;;18.80;99.90;;;;;;4973422;28;20234;-77
2022/10/24 11:55:52;;;;;;;3.17;1.30;;;18.80;99.90;;;;;;4972628;28;20237;-75
2022/10/24 11:58:25;;;;;;;6.05;1.48;;;18.80;99.90;;;;;;4978329;28;20195;-75
2022/10/24 12:01:25;;;;;;;93.78;63.85;;;18.80;99.90;;;;;;4974382;28;20207;-75
2022/10/24 12:04:23;;;;;;;104.15;69.80;;;18.80;99.90;;;;;;4979398;28;20291;-75
2022/10/24 12:07:20;;;;;;;102.15;75.88;;;18.80;99.90;;;;;;4972323;28;20192;-75
2022/10/24 12:10:18;;;;;;;28.48;19.83;;;18.80;99.90;;;;;;4977633;28;20207;-75
2022/10/24 12:13:16;;;;;;;9.30;5.93;;;18.80;99.90;;;;;;4968160;28;20203;-74
2022/10/24 12:15:54;;;;;;;8.35;2.22;;;18.80;99.90;;;;;;4976986;28;20228;-75
2022/10/24 12:18:35;;;;;;;4.43;1.50;;;18.80;99.90;;;;;;4976355;28;20199;-75
2022/10/24 12:21:09;;;;;;;6.63;1.60;;;18.80;99.90;;;;;;4972855;28;20200;-76
2022/10/24 12:23:41;;;;;;;2.45;1.20;;;18.70;99.90;;;;;;4974813;28;20200;-75
2022/10/24 12:26:20;;;;;;;6.55;1.58;;;18.70;99.90;;;;;;4977566;28;20199;-75
2022/10/24 12:28:57;;;;;;;5.00;1.60;;;18.70;99.90;;;;;;4974730;28;20573;-75
2022/10/24 12:31:31;;;;;;;7.68;1.70;;;18.70;99.90;;;;;;4970662;28;20199;-76
2022/10/24 12:34:45;;;;;;;6.00;1.50;;;18.70;99.90;;;;;;4971535;28;20227;-74
2022/10/24 12:37:36;;;;;;;8.27;1.45;;;18.70;99.90;;;;;;4872850;29;20232;-74
2022/10/24 12:40:42;;;;;;;4.18;1.30;;;18.70;99.90;;;;;;4980111;28;20203;-76
2022/10/24 12:43:31;;;;;;;3.95;1.40;;;18.70;99.90;;;;;;4971592;28;20208;-76
2022/10/24 12:46:03;;;;;;;5.55;1.50;;;18.70;99.90;;;;;;4975665;28;20203;-76
2022/10/24 12:48:36;;;;;;;6.10;1.40;;;18.80;99.90;;;;;;4971736;28;20651;-75
2022/10/24 12:51:22;;;;;;;4.55;1.50;;;18.70;99.90;;;;;;4964105;28;20215;-75
2022/10/24 12:54:18;;;;;;;5.93;1.70;;;18.80;99.90;;;;;;4960762;28;20207;-75
2022/10/24 12:57:23;;;;;;;2.30;1.40;;;18.70;99.90;;;;;;4968645;28;20216;-75
2022/10/24 12:59:55;;;;;;;4.00;1.00;;;18.70;99.90;;;;;;4962292;28;20208;-75
2022/10/24 13:02:52;;;;;;;3.10;1.00;;;18.70;99.90;;;;;;4969139;28;20227;-75
2022/10/24 13:05:51;;;;;;;3.03;0.73;;;18.70;99.90;;;;;;4969736;28;20556;-75
2022/10/24 13:08:44;;;;;;;1.50;0.85;;;18.70;99.90;;;;;;4976238;28;20232;-75
2022/10/24 13:11:37;;;;;;;3.13;0.90;;;18.60;99.90;;;;;;4972710;28;20200;-74
2022/10/24 13:14:35;;;;;;;2.83;0.85;;;18.60;99.90;;;;;;4978942;28;20210;-75
2022/10/24 13:17:14;;;;;;;3.13;0.93;;;18.60;99.90;;;;;;4967459;28;20200;-73
2022/10/24 13:19:45;;;;;;;2.20;0.93;;;18.50;99.90;;;;;;4978915;28;20203;-75
2022/10/24 13:22:31;;;;;;;1.20;0.82;;;18.60;99.90;;;;;;4966478;28;20206;-73
2022/10/24 13:25:19;;;;;;;3.13;0.90;;;18.60;99.90;;;;;;4970083;28;20207;-74
2022/10/24 13:28:32;;;;;;;3.63;1.10;;;18.60;99.90;;;;;;4971492;28;20192;-74